Time;durP1;ratioP1;P1;durP2;ratioP2;P2;SDS_P1;SDS_P2;PMS_P1;PMS_P2;Temp;Humidity;BMP_temperature;BMP_pressure;BME280_temperature;BME280_humidity;BME280_pressure;Samples;Min_cycle;Max_cycle;Signal;HPM_P1;HPM_P2
2021/01/15 00:01:09;;;;;;;9.30;5.25;;;;;;;-0.44;73.33;100760.91;4931678;29;20044;-83
2021/01/15 00:03:39;;;;;;;8.38;5.28;;;;;;;-0.47;73.51;100753.97;4919151;29;20083;-83
2021/01/15 00:06:06;;;;;;;8.13;5.18;;;;;;;-0.47;73.91;100759.16;4908556;29;20050;-84
2021/01/15 00:08:34;;;;;;;8.38;5.13;;;;;;;-0.50;73.65;100761.78;4940223;29;20059;-82
2021/01/15 00:11:01;;;;;;;11.27;5.50;;;;;;;-0.50;73.90;100759.19;4931219;29;20095;-84
2021/01/15 00:13:27;;;;;;;8.68;5.15;;;;;;;-0.51;74.25;100761.78;4922367;29;20076;-84
2021/01/15 00:15:54;;;;;;;8.18;5.15;;;;;;;-0.55;74.18;100753.09;4922863;29;20131;-83
2021/01/15 00:18:20;;;;;;;9.55;4.85;;;;;;;-0.55;74.25;100755.69;4927408;29;20116;-83
2021/01/15 00:20:47;;;;;;;6.50;5.10;;;;;;;-0.58;74.20;100758.28;4929535;29;20082;-84
2021/01/15 00:23:16;;;;;;;9.25;5.13;;;;;;;-0.59;74.32;100763.47;4931732;29;20040;-84
2021/01/15 00:25:46;;;;;;;8.45;4.80;;;;;;;-0.62;74.43;100756.50;4915015;29;20079;-84
2021/01/15 00:28:12;;;;;;;6.63;4.78;;;;;;;-0.64;74.60;100760.88;4931526;29;20051;-84
2021/01/15 00:30:38;;;;;;;7.47;5.00;;;;;;;-0.65;74.66;100756.53;4925060;29;20071;-83
2021/01/15 00:33:05;;;;;;;8.48;5.20;;;;;;;-0.65;74.71;100763.47;4924908;29;20044;-83
2021/01/15 00:35:32;;;;;;;8.50;4.82;;;;;;;-0.67;74.92;100766.03;4904726;29;20158;-82
2021/01/15 00:37:58;;;;;;;9.63;4.72;;;;;;;-0.71;74.81;100754.75;4928124;29;20040;-84
2021/01/15 00:40:25;;;;;;;9.07;5.35;;;;;;;-0.66;74.57;100762.59;4941571;29;20164;-84
2021/01/15 00:42:53;;;;;;;9.05;5.25;;;;;;;-0.69;74.63;100765.16;4937601;29;20044;-82
2021/01/15 00:45:19;;;;;;;8.63;4.90;;;;;;;-0.69;74.73;100765.16;4934216;29;20048;-85
2021/01/15 00:47:46;;;;;;;9.52;5.32;;;;;;;-0.73;74.30;100759.06;4930604;29;20052;-84
2021/01/15 00:50:13;;;;;;;7.68;5.38;;;;;;;-0.73;74.50;100769.47;4924174;29;20048;-83
2021/01/15 00:52:39;;;;;;;9.70;5.90;;;;;;;-0.75;74.50;100776.41;4920765;29;20055;-82
2021/01/15 00:55:07;;;;;;;9.35;4.85;;;;;;;-0.73;74.17;100782.47;4924626;29;20076;-83
2021/01/15 00:57:37;;;;;;;8.25;5.25;;;;;;;-0.76;74.72;100771.19;4933352;29;20059;-84
2021/01/15 01:00:06;;;;;;;;;;;;;;;-0.74;74.91;100765.13;4934489;29;20076;-83
2021/01/15 01:02:34;;;;;;;8.15;5.20;;;;;;;-0.77;74.90;100774.66;4936726;29;19922;-83
2021/01/15 01:05:04;;;;;;;7.85;5.15;;;;;;;-0.79;74.90;100773.78;4925328;29;20044;-83
2021/01/15 01:07:33;;;;;;;7.85;5.10;;;;;;;-0.77;75.14;100780.72;4910936;29;20146;-83
2021/01/15 01:09:59;;;;;;;6.80;4.85;;;;;;;-0.80;74.85;100769.47;4928006;29;20082;-82
2021/01/15 01:12:26;;;;;;;8.38;5.30;;;;;;;-0.80;75.72;100779.84;4915700;29;20048;-83
2021/01/15 01:14:54;;;;;;;9.20;5.10;;;;;;;-0.82;75.51;100784.19;4909942;29;20052;-82
2021/01/15 01:17:20;;;;;;;9.32;5.22;;;;;;;-0.84;75.70;100794.56;4922675;29;20044;-83
2021/01/15 01:19:49;;;;;;;8.63;5.40;;;;;;;-0.87;76.23;100796.28;4922408;29;20064;-82
2021/01/15 01:22:15;;;;;;;9.43;5.07;;;;;;;-0.88;76.27;100789.31;4922178;29;20055;-83
2021/01/15 01:24:42;;;;;;;8.25;5.03;;;;;;;-0.91;76.29;100791.91;4918480;29;20054;-83
2021/01/15 01:27:08;;;;;;;9.57;5.40;;;;;;;-0.91;76.05;100795.38;4906108;29;20054;-83
2021/01/15 01:29:35;;;;;;;9.18;5.10;;;;;;;-0.86;76.07;100806.69;4922296;29;20059;-84
2021/01/15 01:32:01;;;;;;;11.10;5.70;;;;;;;-0.90;76.22;100797.13;4900954;29;20059;-83
2021/01/15 01:34:29;;;;;;;11.48;5.80;;;;;;;-0.94;76.18;100797.06;4924244;29;20123;-83
2021/01/15 01:36:56;;;;;;;7.68;5.05;;;;;;;-0.96;76.74;100801.44;4920284;29;20048;-83
2021/01/15 01:39:23;;;;;;;9.32;5.63;;;;;;;-0.99;76.50;100799.66;4926132;29;20070;-84
2021/01/15 01:41:49;;;;;;;9.90;5.50;;;;;;;-0.99;76.52;100804.00;4929755;29;20448;-84
2021/01/15 01:44:15;;;;;;;7.68;4.97;;;;;;;-0.98;76.70;100803.16;4948445;29;20059;-84
2021/01/15 01:46:42;;;;;;;8.70;5.63;;;;;;;-1.00;76.67;100802.25;4934654;29;20043;-84
2021/01/15 01:49:08;;;;;;;8.43;5.25;;;;;;;-1.01;77.02;100806.59;4918281;29;20048;-82
2021/01/15 01:51:36;;;;;;;8.40;5.25;;;;;;;-1.00;76.95;100818.72;4917963;29;20046;-83
2021/01/15 01:54:03;;;;;;;9.90;5.60;;;;;;;-1.03;76.56;100815.22;4920134;29;20056;-83
2021/01/15 01:56:30;;;;;;;8.45;5.05;;;;;;;-1.01;76.56;100826.50;4904936;29;20052;-84
2021/01/15 01:58:57;;;;;;;8.77;5.43;;;;;;;-1.03;76.81;100820.44;4902766;29;20128;-83
2021/01/15 02:01:25;;;;;;;8.07;5.00;;;;;;;-1.05;76.53;100820.41;4926309;29;20215;-84
2021/01/15 02:04:02;;;;;;;8.82;4.95;;;;;;;-1.08;76.95;100825.59;4927064;29;20051;-84
2021/01/15 02:06:31;;;;;;;8.50;5.20;;;;;;;-1.12;76.66;100819.53;4923737;29;20048;-84
2021/01/15 02:09:02;;;;;;;8.18;4.78;;;;;;;-1.09;77.09;100834.25;4930027;29;20052;-84
2021/01/15 02:11:41;;;;;;;8.50;5.05;;;;;;;-1.12;76.73;100829.91;4924784;29;20036;-82
2021/01/15 02:14:30;;;;;;;7.88;4.80;;;;;;;-1.12;76.59;100829.91;4934447;29;20043;-85
2021/01/15 02:16:59;;;;;;;8.75;4.80;;;;;;;-1.17;76.47;100831.59;4931717;29;20048;-83
2021/01/15 02:19:43;;;;;;;8.43;5.20;;;;;;;-1.18;77.06;100819.47;4930596;29;20074;-82
2021/01/15 02:22:33;;;;;;;8.68;4.93;;;;;;;-1.17;77.42;100816.00;4929067;29;20058;-84
2021/01/15 02:25:00;;;;;;;8.00;4.97;;;;;;;-1.15;76.74;100840.28;4931494;29;20051;-84
2021/01/15 02:28:05;;;;;;;9.55;5.25;;;;;;;-1.18;77.02;100834.19;4924336;29;20138;-83
2021/01/15 02:30:57;;;;;;;9.23;5.32;;;;;;;-1.23;77.40;100831.53;4916056;29;20059;-83
2021/01/15 02:33:48;;;;;;;6.25;4.20;;;;;;;-1.22;77.14;100832.41;4915004;29;20094;-84
2021/01/15 02:36:34;;;;;;;7.80;5.10;;;;;;;-1.26;77.38;100831.50;4918987;29;20055;-83
2021/01/15 02:39:16;;;;;;;8.82;5.45;;;;;;;-1.24;76.81;100839.31;4902561;29;20060;-84
2021/01/15 02:41:45;;;;;;;7.35;4.43;;;;;;;-1.25;77.51;100847.97;4905121;29;20051;-82
2021/01/15 02:44:17;;;;;;;7.47;4.90;;;;;;;-1.23;76.83;100848.84;4916367;29;20446;-82
2021/01/15 02:46:57;;;;;;;8.32;4.57;;;;;;;-1.19;76.91;100856.69;4904133;29;20071;-82
2021/01/15 02:49:24;;;;;;;6.57;4.55;;;;;;;-1.20;76.55;100865.34;4916813;29;20163;-82
2021/01/15 02:51:52;;;;;;;5.93;4.13;;;;;;;-1.17;76.95;100856.72;4903752;29;20051;-84
2021/01/15 02:54:19;;;;;;;8.45;4.53;;;;;;;-1.15;76.67;100873.19;4914745;29;20050;-83
2021/01/15 02:56:46;;;;;;;9.85;4.63;;;;;;;-1.11;76.98;100872.38;4915755;29;20052;-83
2021/01/15 02:59:12;;;;;;;8.15;4.57;;;;;;;-1.08;76.96;100870.63;4916367;29;20044;-83
2021/01/15 03:01:53;;;;;;;6.53;4.22;;;;;;;-1.00;76.73;100869.84;4918119;29;20052;-83
2021/01/15 03:05:04;;;;;;;7.28;4.57;;;;;;;-0.96;76.65;100871.63;4917654;29;20481;-83
2021/01/15 03:07:30;;;;;;;7.93;4.75;;;;;;;-0.93;75.97;100874.22;4894102;29;20059;-82
2021/01/15 03:10:04;;;;;;;8.45;4.30;;;;;;;-0.91;76.25;100877.69;4917622;29;20047;-83
2021/01/15 03:12:31;;;;;;;6.93;4.15;;;;;;;-0.86;76.39;100884.69;4903791;29;20064;-83
2021/01/15 03:14:59;;;;;;;9.00;4.80;;;;;;;-0.80;76.17;100883.88;4918815;29;20063;-82
2021/01/15 03:17:32;;;;;;;7.03;4.80;;;;;;;-0.79;76.11;100885.59;4918969;29;20052;-83
2021/01/15 03:20:00;;;;;;;6.72;4.75;;;;;;;-0.75;76.37;100888.22;4903817;29;20052;-82
2021/01/15 03:22:27;;;;;;;9.18;4.88;;;;;;;-0.69;76.73;100882.19;4917789;29;20048;-83
2021/01/15 03:24:56;;;;;;;7.97;4.75;;;;;;;-0.65;76.77;100889.16;4926090;29;20162;-84
2021/01/15 03:27:24;;;;;;;7.75;5.05;;;;;;;-0.60;76.34;100881.38;4907013;29;20056;-83
2021/01/15 03:29:51;;;;;;;8.35;4.93;;;;;;;-0.57;76.16;100894.41;4930680;29;20054;-82
2021/01/15 03:32:17;;;;;;;8.50;5.60;;;;;;;-0.51;76.13;100897.03;4936450;29;20175;-81
2021/01/15 03:34:44;;;;;;;7.45;5.22;;;;;;;-0.48;75.89;100897.94;4931521;29;20064;-81
2021/01/15 03:37:10;;;;;;;8.25;5.60;;;;;;;-0.46;75.79;100908.31;4919158;29;20036;-82
2021/01/15 03:39:37;;;;;;;8.77;5.63;;;;;;;-0.47;75.58;100907.44;4920326;29;20052;-81
2021/01/15 03:42:03;;;;;;;9.32;5.18;;;;;;;-0.44;76.29;100909.22;4919097;29;20245;-82
2021/01/15 03:44:30;;;;;;;10.98;5.50;;;;;;;-0.41;76.17;100904.03;4921152;29;20049;-82
2021/01/15 03:46:56;;;;;;;9.10;5.80;;;;;;;-0.40;75.98;100914.44;4914597;29;20050;-83
2021/01/15 03:49:23;;;;;;;8.60;5.72;;;;;;;-0.42;76.10;100912.69;4926902;29;20139;-83
2021/01/15 03:51:50;;;;;;;12.73;6.55;;;;;;;-0.41;76.35;100917.03;4927498;29;20072;-82
2021/01/15 03:54:16;;;;;;;12.75;7.00;;;;;;;-0.40;76.87;100918.78;4934742;29;20048;-83
2021/01/15 03:56:42;;;;;;;11.07;6.28;;;;;;;-0.40;77.00;100922.25;4942196;29;20112;-83
2021/01/15 03:59:09;;;;;;;9.02;5.88;;;;;;;-0.40;76.63;100924.00;4934516;29;20046;-82
2021/01/15 04:01:36;;;;;;;9.27;5.85;;;;;;;-0.43;77.25;100922.22;4937002;29;20044;-82
2021/01/15 04:04:03;;;;;;;10.75;6.68;;;;;;;-0.44;77.05;100924.81;4905494;29;20063;-82
2021/01/15 04:06:33;;;;;;;9.83;5.97;;;;;;;-0.47;77.61;100927.41;4922893;29;20044;-82
2021/01/15 04:08:59;;;;;;;9.50;5.85;;;;;;;-0.51;77.45;100920.47;4923644;29;20503;-81
2021/01/15 04:11:26;;;;;;;13.10;6.72;;;;;;;-0.48;77.30;100934.38;4907627;29;20064;-81
2021/01/15 04:13:52;;;;;;;12.80;6.88;;;;;;;-0.50;77.80;100933.47;4934427;29;20064;-82
2021/01/15 04:16:19;;;;;;;12.57;7.07;;;;;;;-0.48;78.15;100934.38;4951526;29;20049;-83
2021/01/15 04:18:45;;;;;;;10.80;6.65;;;;;;;-0.44;77.54;100945.63;4941058;28;20099;-83
2021/01/15 04:21:16;;;;;;;11.32;6.88;;;;;;;-0.43;77.87;100952.59;4937443;29;20052;-83
2021/01/15 04:23:44;;;;;;;;;;;;;;;-0.39;77.89;100955.22;4939628;29;20040;-82
2021/01/15 04:26:17;;;;;;;12.57;6.75;;;;;;;-0.36;78.43;100959.59;4937692;29;20159;-82
2021/01/15 04:28:45;;;;;;;10.23;6.60;;;;;;;-0.31;78.33;100967.38;4950566;29;20049;-84
2021/01/15 04:31:16;;;;;;;13.77;7.93;;;;;;;-0.31;77.63;100963.06;4909631;29;20116;-83
2021/01/15 04:33:42;;;;;;;14.48;7.72;;;;;;;-0.28;78.33;100968.28;4920649;29;20048;-83
2021/01/15 04:36:12;;;;;;;12.13;7.53;;;;;;;-0.30;78.02;100964.81;4920584;29;20044;-81
2021/01/15 04:38:43;;;;;;;15.05;8.15;;;;;;;-0.30;78.21;100972.59;4915784;29;20055;-81
2021/01/15 04:41:09;;;;;;;13.82;8.18;;;;;;;-0.30;78.70;100975.22;4907287;29;20463;-82
2021/01/15 04:43:39;;;;;;;14.80;8.45;;;;;;;-0.28;78.75;100975.22;4923246;29;20044;-80
2021/01/15 04:46:06;;;;;;;17.27;8.50;;;;;;;-0.30;78.72;100984.75;4934102;29;20107;-81
2021/01/15 04:48:41;;;;;;;15.50;8.20;;;;;;;-0.31;78.33;100975.19;4935356;29;20480;-80
2021/01/15 04:51:14;;;;;;;15.38;8.52;;;;;;;-0.32;78.47;100981.28;4932764;29;20115;-84
2021/01/15 04:53:49;;;;;;;15.27;8.45;;;;;;;-0.33;78.75;100980.44;4930176;29;20051;-83
2021/01/15 04:56:16;;;;;;;16.02;8.95;;;;;;;-0.30;79.21;100987.34;4905087;29;20107;-83
2021/01/15 04:58:46;;;;;;;15.05;8.77;;;;;;;-0.25;79.24;100983.94;4900803;29;20079;-83
2021/01/15 05:01:16;;;;;;;17.33;9.27;;;;;;;-0.26;78.81;100982.19;4925279;29;20055;-85
2021/01/15 05:03:45;;;;;;;16.80;9.20;;;;;;;-0.24;79.07;100984.81;4925074;29;21123;-84
2021/01/15 05:06:20;;;;;;;18.17;9.60;;;;;;;-0.28;78.92;100988.25;4907985;29;20048;-83
2021/01/15 05:08:53;;;;;;;14.60;9.50;;;;;;;-0.31;79.16;100983.88;4934251;29;20472;-84
2021/01/15 05:11:21;;;;;;;15.05;9.05;;;;;;;-0.28;79.04;100991.72;4907318;29;20058;-83
2021/01/15 05:13:51;;;;;;;18.63;9.85;;;;;;;-0.27;79.52;100992.59;4927455;29;20485;-83
2021/01/15 05:16:19;;;;;;;19.33;9.57;;;;;;;-0.31;80.00;100998.63;4920758;29;20055;-84
2021/01/15 05:18:47;;;;;;;18.90;10.07;;;;;;;-0.30;79.61;100992.56;4932459;29;20036;-83
2021/01/15 05:21:13;;;;;;;18.30;10.35;;;;;;;-0.28;79.80;101001.25;4935462;29;20044;-84
2021/01/15 05:23:40;;;;;;;19.50;10.25;;;;;;;-0.35;80.23;101000.34;4924052;29;20044;-83
2021/01/15 05:26:06;;;;;;;19.70;10.63;;;;;;;-0.37;80.38;101002.94;4940540;29;20056;-84
2021/01/15 05:28:41;;;;;;;17.80;10.57;;;;;;;-0.40;80.85;101000.31;4933622;29;20070;-82
2021/01/15 05:31:07;;;;;;;18.35;10.32;;;;;;;-0.38;81.09;100995.13;4934414;29;20052;-83
2021/01/15 05:33:34;;;;;;;19.67;10.80;;;;;;;-0.30;80.69;101003.84;4937984;29;20079;-83
2021/01/15 05:36:00;;;;;;;18.52;10.70;;;;;;;-0.28;80.43;101017.75;4937557;29;20036;-82
2021/01/15 05:38:27;;;;;;;17.85;11.07;;;;;;;-0.29;80.40;101017.72;4935807;29;20051;-82
2021/01/15 05:40:55;;;;;;;16.67;10.57;;;;;;;-0.27;80.46;101021.22;4932455;29;20056;-82
2021/01/15 05:43:30;;;;;;;19.05;11.07;;;;;;;-0.26;80.50;101021.22;4919720;29;20062;-82
2021/01/15 05:46:11;;;;;;;19.23;10.90;;;;;;;-0.26;80.48;101028.16;4921235;29;20048;-83
2021/01/15 05:48:43;;;;;;;20.52;10.88;;;;;;;-0.31;80.77;101019.44;4921745;29;20056;-83
2021/01/15 05:51:31;;;;;;;19.85;11.70;;;;;;;-0.34;80.95;101025.53;4901600;29;20058;-82
2021/01/15 05:54:00;;;;;;;19.33;11.38;;;;;;;-0.34;80.48;101016.84;4918817;29;20059;-83
2021/01/15 05:56:40;;;;;;;23.02;12.10;;;;;;;-0.33;80.47;101023.78;4917904;29;20112;-82
2021/01/15 05:59:08;;;;;;;19.17;10.68;;;;;;;-0.42;80.81;101032.38;4918768;29;20036;-82
2021/01/15 06:01:56;;;;;;;23.15;12.32;;;;;;;-0.46;80.99;101036.69;4919041;29;20055;-82
2021/01/15 06:04:31;;;;;;;21.15;11.35;;;;;;;-0.52;81.13;101041.84;4919064;29;20067;-84
2021/01/15 06:07:17;;;;;;;19.92;11.18;;;;;;;-0.63;81.73;101043.47;4908976;29;20056;-84
2021/01/15 06:09:46;;;;;;;22.27;12.02;;;;;;;-0.66;81.75;101042.59;4907387;29;20116;-83
2021/01/15 06:12:14;;;;;;;20.15;11.13;;;;;;;-0.71;82.04;101045.16;4927080;29;20052;-83
2021/01/15 06:14:56;;;;;;;21.33;12.02;;;;;;;-0.78;82.33;101053.72;4909455;29;20032;-82
2021/01/15 06:17:25;;;;;;;23.88;11.77;;;;;;;-0.84;82.17;101051.09;4916205;29;20048;-82
2021/01/15 06:19:58;;;;;;;23.80;12.15;;;;;;;-0.80;82.26;101065.88;4929177;29;20056;-82
2021/01/15 06:22:47;;;;;;;22.75;12.07;;;;;;;-0.84;82.19;101064.97;4930162;29;20048;-82
2021/01/15 06:25:30;;;;;;;24.13;11.70;;;;;;;-0.88;82.30;101070.97;4927154;29;20067;-82
2021/01/15 06:27:59;;;;;;;26.52;11.75;;;;;;;-0.92;82.42;101077.00;4908277;29;20058;-83
2021/01/15 06:30:35;;;;;;;19.90;11.23;;;;;;;-0.95;83.13;101082.19;4923000;29;20410;-82
2021/01/15 06:33:12;;;;;;;20.88;10.95;;;;;;;-0.98;83.03;101076.09;4922571;29;20052;-82
2021/01/15 06:35:44;;;;;;;21.67;11.43;;;;;;;-1.04;83.20;101076.88;4906997;29;20058;-82
2021/01/15 06:38:25;;;;;;;20.52;11.25;;;;;;;-0.98;82.85;101079.56;4927246;29;20118;-83
2021/01/15 06:40:55;;;;;;;17.75;10.57;;;;;;;-0.97;82.13;101080.44;4927042;29;20056;-83
2021/01/15 06:43:31;;;;;;;21.38;11.27;;;;;;;-0.97;82.27;101083.03;4910780;29;20056;-83
2021/01/15 06:46:00;;;;;;;19.70;10.95;;;;;;;-1.01;82.28;101086.44;4926250;29;20071;-80
2021/01/15 06:48:32;;;;;;;17.70;9.80;;;;;;;-1.05;82.38;101082.94;4924789;29;20052;-82
2021/01/15 06:51:00;;;;;;;23.80;11.43;;;;;;;-1.06;82.36;101089.84;4923686;29;20064;-81
2021/01/15 06:53:33;;;;;;;19.23;10.38;;;;;;;-1.09;82.03;101084.63;4917185;29;20044;-82
2021/01/15 06:56:02;;;;;;;19.67;11.20;;;;;;;-1.09;82.17;101089.81;4925677;29;20058;-82
2021/01/15 06:58:41;;;;;;;17.80;10.40;;;;;;;-1.13;82.53;101093.25;4925461;29;20067;-82
2021/01/15 07:01:17;;;;;;;21.20;11.18;;;;;;;-1.13;82.01;101095.84;4921100;29;21363;-82
2021/01/15 07:03:50;;;;;;;22.83;10.70;;;;;;;-1.16;82.19;101097.53;4917105;29;20063;-83
2021/01/15 07:06:38;;;;;;;19.80;10.20;;;;;;;-1.16;82.18;101103.63;4917377;29;20044;-82
2021/01/15 07:09:09;;;;;;;18.10;10.40;;;;;;;-1.16;82.02;101103.63;4926174;29;20064;-82
2021/01/15 07:11:42;;;;;;;15.98;9.27;;;;;;;-1.18;82.35;101104.44;4917424;29;20088;-82
2021/01/15 07:14:09;;;;;;;18.08;9.98;;;;;;;-1.21;82.12;101110.47;4919041;29;20075;-82
2021/01/15 07:16:40;;;;;;;23.75;10.70;;;;;;;-1.06;86.20;101108.06;4903117;29;20066;-82
2021/01/15 07:19:19;;;;;;;21.83;10.85;;;;;;;-0.73;88.24;101111.88;4923481;29;20056;-82
2021/01/15 07:22:08;;;;;;;20.83;9.98;;;;;;;-0.69;83.23;101116.25;4925117;29;20135;-80
2021/01/15 07:24:37;;;;;;;18.05;9.50;;;;;;;-0.78;81.86;101117.00;4925370;29;20055;-81
2021/01/15 07:27:06;;;;;;;17.42;10.10;;;;;;;-0.86;81.31;101128.19;4925287;29;20050;-81
2021/01/15 07:29:35;;;;;;;19.30;10.07;;;;;;;-0.91;81.20;101141.16;4922668;29;20047;-82
2021/01/15 07:32:09;;;;;;;17.55;9.80;;;;;;;-0.97;81.05;101135.03;4930480;29;20040;-83
2021/01/15 07:34:43;;;;;;;19.30;10.45;;;;;;;-0.92;80.39;101139.41;4925272;29;20382;-80
2021/01/15 07:37:20;;;;;;;19.35;10.55;;;;;;;-0.95;80.58;101138.50;4927026;29;20056;-82
2021/01/15 07:40:24;;;;;;;18.23;9.90;;;;;;;-1.01;80.86;101136.72;4908930;29;20052;-84
2021/01/15 07:42:58;;;;;;;20.02;10.65;;;;;;;-1.03;80.94;101141.00;4913105;29;20081;-83
2021/01/15 07:45:28;;;;;;;16.60;9.52;;;;;;;-1.01;80.67;101148.81;4937429;29;20849;-82
2021/01/15 07:47:57;;;;;;;16.48;9.38;;;;;;;-1.04;81.10;101143.59;4939638;29;20060;-83
2021/01/15 07:50:32;;;;;;;;;;;;;;;-0.93;80.74;101149.78;4942443;29;20036;-83
2021/01/15 07:53:18;;;;;;;19.27;10.40;;;;;;;-0.87;81.03;101157.66;4925056;29;19938;-83
2021/01/15 07:55:56;;;;;;;24.08;10.65;;;;;;;-0.76;80.20;101169.03;4941863;28;20042;-82
2021/01/15 07:58:38;;;;;;;19.02;10.18;;;;;;;-0.71;79.72;101170.84;4926687;29;20036;-81
2021/01/15 08:01:06;;;;;;;19.92;10.48;;;;;;;-0.50;79.89;101162.41;4946720;29;20036;-83
2021/01/15 08:03:45;;;;;;;21.75;10.40;;;;;;;-0.45;79.51;101163.31;4923560;29;20107;-82
2021/01/15 08:06:32;;;;;;;18.63;10.60;;;;;;;-0.40;78.92;101161.63;4928000;29;20048;-82
2021/01/15 08:09:04;;;;;;;19.80;10.73;;;;;;;-0.37;78.54;101169.47;4927823;29;20055;-82
2021/01/15 08:11:35;;;;;;;21.05;11.70;;;;;;;-0.32;77.69;101159.13;4906313;29;20048;-83
2021/01/15 08:14:20;;;;;;;22.50;12.20;;;;;;;-0.34;77.56;101175.56;4922639;29;20055;-83
2021/01/15 08:16:55;;;;;;;20.23;11.00;;;;;;;-0.47;78.13;101170.22;4929203;29;20044;-86
2021/01/15 08:19:26;;;;;;;22.38;12.23;;;;;;;-0.47;78.32;101172.81;4930267;29;20055;-84
2021/01/15 08:21:54;;;;;;;22.15;12.82;;;;;;;-0.44;78.00;101172.00;4931337;29;20055;-84
2021/01/15 08:24:24;;;;;;;21.17;12.07;;;;;;;-0.32;77.90;101185.16;4925213;29;20059;-86
2021/01/15 08:26:55;;;;;;;21.80;11.65;;;;;;;-0.26;77.48;101184.31;4921863;29;20056;-84
2021/01/15 08:29:28;;;;;;;23.38;12.48;;;;;;;-0.23;77.65;101192.16;4923430;29;20062;-86
2021/01/15 08:31:57;;;;;;;22.17;11.90;;;;;;;-0.15;76.82;101187.88;4928109;29;20044;-83
2021/01/15 08:34:32;;;;;;;20.42;11.85;;;;;;;-0.12;76.50;101195.72;4934130;29;20796;-81
2021/01/15 08:37:00;;;;;;;23.80;12.48;;;;;;;-0.01;76.73;101191.50;4931190;29;20079;-83
2021/01/15 08:39:27;;;;;;;25.08;12.57;;;;;;;0.02;75.91;101195.84;4918966;29;20044;-82
2021/01/15 08:41:57;;;;;;;22.65;11.70;;;;;;;0.06;76.01;101206.31;4911276;29;20066;-83
2021/01/15 08:44:34;;;;;;;23.13;12.10;;;;;;;0.06;75.25;101206.31;4912686;29;20056;-82
2021/01/15 08:47:08;;;;;;;21.98;12.02;;;;;;;0.11;75.45;101211.56;4924991;29;20123;-84
2021/01/15 08:49:36;;;;;;;20.83;11.80;;;;;;;0.11;75.99;101204.63;4928381;29;20044;-81
2021/01/15 08:52:05;;;;;;;23.58;13.15;;;;;;;0.19;74.87;101226.38;4923418;29;20433;-81
2021/01/15 08:54:38;;;;;;;22.90;12.95;;;;;;;0.27;75.07;101221.25;4925975;29;20079;-81
2021/01/15 08:57:05;;;;;;;22.13;12.80;;;;;;;0.39;75.03;101239.56;4924948;29;20056;-82
2021/01/15 08:59:32;;;;;;;24.10;13.25;;;;;;;0.53;75.05;101234.47;4924320;29;20048;-81
2021/01/15 09:02:01;;;;;;;23.30;13.38;;;;;;;0.61;74.28;101238.88;4934123;29;20060;-82
2021/01/15 09:04:30;;;;;;;22.50;12.13;;;;;;;0.67;73.59;101241.50;4916303;29;20048;-83
2021/01/15 09:07:00;;;;;;;23.00;12.60;;;;;;;0.70;73.92;101238.06;4911546;29;20058;-84
2021/01/15 09:09:28;;;;;;;23.83;13.18;;;;;;;0.79;73.45;101252.91;4922432;29;20416;-84
2021/01/15 09:11:59;;;;;;;22.98;13.00;;;;;;;0.87;73.31;101253.81;4903133;29;20052;-82
2021/01/15 09:14:29;;;;;;;23.33;12.45;;;;;;;0.84;72.86;101257.28;4922618;29;20067;-81
2021/01/15 09:16:55;;;;;;;21.27;12.52;;;;;;;0.88;72.69;101266.88;4918961;29;20056;-83
2021/01/15 09:19:22;;;;;;;22.15;13.02;;;;;;;0.92;72.80;101259.94;4911438;29;20062;-81
2021/01/15 09:22:04;;;;;;;20.48;12.35;;;;;;;0.98;73.26;101268.66;4919703;29;20044;-81
2021/01/15 09:24:35;;;;;;;22.20;12.73;;;;;;;1.09;72.65;101278.28;4919407;29;20044;-81
2021/01/15 09:27:06;;;;;;;19.67;11.57;;;;;;;1.14;72.46;101277.44;4918947;29;20048;-83
2021/01/15 09:29:34;;;;;;;21.23;12.18;;;;;;;1.17;72.33;101279.19;4953775;23;20060;-84
2021/01/15 09:32:02;;;;;;;19.58;11.60;;;;;;;1.23;72.18;101279.25;4918266;29;20048;-82
2021/01/15 09:34:30;;;;;;;20.95;12.20;;;;;;;1.24;71.87;101281.00;4914986;29;20419;-80
2021/01/15 09:36:59;;;;;;;19.85;11.73;;;;;;;1.25;72.83;101288.81;4923880;29;20048;-80
2021/01/15 09:39:27;;;;;;;17.73;11.10;;;;;;;1.24;72.43;101286.19;4926816;29;20142;-84
2021/01/15 09:41:59;;;;;;;19.77;11.23;;;;;;;1.20;72.59;101290.53;4929530;29;20112;-86
2021/01/15 09:44:28;;;;;;;19.38;11.70;;;;;;;1.27;73.14;101299.25;4926551;29;20067;-85
2021/01/15 09:47:00;;;;;;;18.73;11.82;;;;;;;1.32;73.26;101295.78;4913334;29;20081;-84
2021/01/15 09:49:33;;;;;;;19.80;11.52;;;;;;;1.36;73.86;101294.97;4932715;29;20055;-84
2021/01/15 09:52:02;;;;;;;20.10;11.45;;;;;;;1.45;73.14;101301.94;4913912;29;20044;-85
2021/01/15 09:54:29;;;;;;;18.92;10.43;;;;;;;1.48;73.00;101311.53;4932640;29;20067;-84
2021/01/15 09:56:55;;;;;;;17.50;10.57;;;;;;;1.50;72.22;101299.38;4922323;29;20994;-84
2021/01/15 09:59:22;;;;;;;17.42;10.32;;;;;;;1.57;72.71;101303.75;4908353;29;20067;-83
2021/01/15 10:01:49;;;;;;;17.58;10.85;;;;;;;1.65;72.61;101318.56;4922551;29;20048;-83
2021/01/15 10:04:16;;;;;;;17.25;10.18;;;;;;;1.69;72.28;101317.72;4917347;29;20056;-81
2021/01/15 10:06:46;;;;;;;17.23;10.50;;;;;;;1.68;72.31;101317.72;4903216;29;20037;-82
2021/01/15 10:09:15;;;;;;;18.35;10.52;;;;;;;1.58;72.92;101314.19;4921263;29;20170;-83
2021/01/15 10:11:45;;;;;;;18.48;11.43;;;;;;;1.58;73.08;101319.41;4920745;29;20048;-83
2021/01/15 10:14:13;;;;;;;16.92;10.10;;;;;;;1.65;73.41;101326.41;4918980;29;20100;-83
2021/01/15 10:16:42;;;;;;;18.13;10.48;;;;;;;1.69;72.67;101324.69;4920436;29;20056;-84
2021/01/15 10:19:09;;;;;;;19.75;10.73;;;;;;;1.72;72.57;101322.97;4919467;29;20162;-83
2021/01/15 10:21:43;;;;;;;18.90;10.52;;;;;;;1.71;72.99;101336.88;4907159;29;20366;-81
2021/01/15 10:24:11;;;;;;;18.23;10.35;;;;;;;1.77;72.98;101336.00;4926731;29;20044;-84
2021/01/15 10:26:40;;;;;;;17.63;9.73;;;;;;;1.82;73.30;101323.00;4929518;29;20375;-82
2021/01/15 10:29:12;;;;;;;16.42;10.45;;;;;;;1.83;72.87;101320.38;4901215;29;20147;-82
2021/01/15 10:31:43;;;;;;;;;;;;;;;1.91;72.95;101341.28;4927213;29;20395;-85
2021/01/15 10:34:11;;;;;;;15.45;9.93;;;;;;;1.90;72.26;101347.38;4914914;29;19923;-84
2021/01/15 10:36:43;;;;;;;16.02;10.23;;;;;;;1.73;73.18;101339.50;4929425;29;20056;-83
2021/01/15 10:39:10;;;;;;;17.50;10.35;;;;;;;1.74;73.89;101347.31;4926822;29;20059;-82
2021/01/15 10:41:39;;;;;;;18.20;11.13;;;;;;;1.84;73.27;101344.75;4916546;29;20147;-83
2021/01/15 10:44:08;;;;;;;18.08;10.98;;;;;;;1.90;73.14;101344.75;4909710;29;20054;-80
2021/01/15 10:46:39;;;;;;;16.58;11.45;;;;;;;1.95;72.77;101337.81;4917827;29;20505;-81
2021/01/15 10:49:23;;;;;;;17.55;11.25;;;;;;;2.02;73.12;101340.47;4919634;29;20056;-81
2021/01/15 10:52:06;;;;;;;21.50;11.98;;;;;;;2.12;72.95;101336.13;4906405;29;20044;-80
2021/01/15 10:54:35;;;;;;;22.60;11.80;;;;;;;2.22;73.08;101337.00;4919222;29;20055;-81
2021/01/15 10:57:03;;;;;;;20.17;11.60;;;;;;;2.30;73.08;101344.03;4907171;29;20078;-81
2021/01/15 10:59:30;;;;;;;20.63;12.10;;;;;;;2.31;71.91;101335.31;4906452;29;20602;-81
2021/01/15 11:01:56;;;;;;;17.45;10.63;;;;;;;2.24;71.94;101349.22;4916440;29;20064;-81
2021/01/15 11:04:23;;;;;;;21.48;12.07;;;;;;;2.21;72.15;101343.09;4919116;29;20063;-82
2021/01/15 11:06:56;;;;;;;21.00;12.30;;;;;;;2.13;72.91;101343.09;4925904;29;20123;-81
2021/01/15 11:09:37;;;;;;;20.73;12.15;;;;;;;2.10;72.87;101348.31;4935677;29;20056;-85
2021/01/15 11:12:11;;;;;;;23.23;13.07;;;;;;;1.95;73.47;101350.88;4923293;29;20084;-84
2021/01/15 11:14:38;;;;;;;21.17;12.45;;;;;;;1.82;73.91;101338.66;4923249;29;20054;-82
2021/01/15 11:17:04;;;;;;;25.73;13.18;;;;;;;1.85;74.78;101336.06;4922932;29;20052;-81
2021/01/15 11:19:32;;;;;;;25.20;13.07;;;;;;;1.93;74.17;101345.66;4904436;29;20553;-83
2021/01/15 11:21:59;;;;;;;22.65;13.00;;;;;;;2.02;74.10;101347.44;4920491;29;20116;-82
2021/01/15 11:24:26;;;;;;;22.60;13.00;;;;;;;2.06;74.00;101349.16;4924043;29;20652;-82
2021/01/15 11:26:55;;;;;;;22.55;13.15;;;;;;;2.14;73.97;101341.38;4928686;29;20064;-82
2021/01/15 11:29:22;;;;;;;24.48;13.50;;;;;;;2.21;74.00;101343.97;4917293;29;20108;-81
2021/01/15 11:31:49;;;;;;;22.80;12.80;;;;;;;2.25;73.48;101340.50;4915964;29;20063;-79
2021/01/15 11:34:16;;;;;;;22.00;12.52;;;;;;;2.19;73.48;101345.75;4923848;29;20080;-80
2021/01/15 11:36:43;;;;;;;23.75;13.43;;;;;;;2.09;74.00;101341.34;4915893;29;20059;-81